Time;durP1;ratioP1;P1;durP2;ratioP2;P2;SDS_P1;SDS_P2;PMS_P1;PMS_P2;Temp;Humidity;BMP_temperature;BMP_pressure;BME280_temperature;BME280_humidity;BME280_pressure;Samples;Min_cycle;Max_cycle;Signal;HPM_P1;HPM_P2
2021/06/01 00:01:53;;;;;;;19.08;10.70;;;;;;;;;;5052554;28;20033;-48
2021/06/01 00:04:19;;;;;;;13.35;6.85;;;;;;;;;;5052670;28;20025;-48
2021/06/01 00:06:46;;;;;;;38.72;22.80;;;;;;;;;;5052703;28;20454;-49
2021/06/01 00:09:14;;;;;;;39.97;22.00;;;;;;;;;;5052681;28;20025;-46
2021/06/01 00:11:40;;;;;;;16.98;10.68;;;;;;;;;;5053653;28;20033;-47
2021/06/01 00:14:07;;;;;;;21.50;10.75;;;;;;;;;;5056080;28;20028;-47
2021/06/01 00:16:34;;;;;;;13.20;8.02;;;;;;;;;;5054899;28;20502;-47
2021/06/01 00:19:00;;;;;;;21.38;12.57;;;;;;;;;;5056064;28;20483;-48
2021/06/01 00:21:26;;;;;;;15.40;8.35;;;;;;;;;;5055896;28;20041;-49
2021/06/01 00:23:54;;;;;;;37.22;24.83;;;;;;;;;;5055898;28;20484;-48
2021/06/01 00:26:20;;;;;;;43.30;24.38;;;;;;;;;;5055773;28;20400;-47
2021/06/01 00:28:46;;;;;;;23.70;14.45;;;;;;;;;;5055985;28;20032;-49
2021/06/01 00:31:12;;;;;;;21.08;11.75;;;;;;;;;;5055711;28;20036;-49
2021/06/01 00:33:41;;;;;;;41.83;24.55;;;;;;;;;;5055720;28;20409;-49
2021/06/01 00:36:07;;;;;;;23.50;14.23;;;;;;;;;;5055639;28;20029;-49
2021/06/01 00:38:34;;;;;;;17.50;11.65;;;;;;;;;;5055560;28;20100;-47
2021/06/01 00:41:00;;;;;;;30.48;18.23;;;;;;;;;;5055384;28;20559;-48
2021/06/01 00:43:26;;;;;;;12.35;7.93;;;;;;;;;;5055503;28;20033;-49
2021/06/01 00:45:55;;;;;;;20.05;12.10;;;;;;;;;;5055360;28;20021;-48
2021/06/01 00:48:25;;;;;;;18.23;11.73;;;;;;;;;;5055394;28;20028;-47
2021/06/01 00:50:51;;;;;;;15.95;9.07;;;;;;;;;;5055201;28;20374;-52
2021/06/01 00:53:18;;;;;;;8.68;5.15;;;;;;;;;;5055364;28;20036;-47
2021/06/01 00:55:44;;;;;;;8.77;4.50;;;;;;;;;;5055420;28;20496;-44
2021/06/01 00:58:10;;;;;;;8.88;4.10;;;;;;;;;;5055197;28;20072;-50
2021/06/01 01:03:17;;;;;;;5.65;4.05;;;;;;;;;;5055350;28;20052;-46
2021/06/01 01:05:47;;;;;;;8.65;4.53;;;;;;;;;;5055211;28;20021;-46
2021/06/01 01:10:58;;;;;;;18.58;11.63;;;;;;;;;;5055450;28;20036;-45
2021/06/01 01:13:24;;;;;;;20.90;12.98;;;;;;;;;;5054957;28;20384;-47
2021/06/01 01:15:51;;;;;;;28.67;16.10;;;;;;;;;;5055011;28;20025;-44
2021/06/01 01:18:19;;;;;;;59.65;34.60;;;;;;;;;;5054909;28;20025;-47
2021/06/01 01:21:00;;;;;;;59.63;36.67;;;;;;;;;;5054532;28;20048;-46
2021/06/01 01:23:31;;;;;;;29.90;17.85;;;;;;;;;;5053873;28;20505;-44
2021/06/01 01:26:00;;;;;;;33.08;20.77;;;;;;;;;;5054660;28;20481;-45
2021/06/01 01:28:56;;;;;;;28.17;17.52;;;;;;;;;;5054592;28;20590;-46
2021/06/01 01:31:28;;;;;;;26.55;17.30;;;;;;;;;;5041539;28;20108;-47
2021/06/01 01:33:58;;;;;;;48.08;26.95;;;;;;;;;;5054697;28;20100;-49
2021/06/01 01:36:25;;;;;;;26.05;16.70;;;;;;;;;;5054827;28;20094;-48
2021/06/01 01:38:52;;;;;;;43.88;26.48;;;;;;;;;;5054627;28;20013;-48
2021/06/01 01:41:19;;;;;;;21.88;12.73;;;;;;;;;;5054358;28;20127;-48
2021/06/01 01:43:52;;;;;;;19.05;12.48;;;;;;;;;;5054363;28;20032;-50
2021/06/01 01:49:24;;;;;;;9.35;7.00;;;;;;;;;;4993059;28;20034;-49
2021/06/01 01:51:53;;;;;;;13.10;8.05;;;;;;;;;;4992681;28;20138;-49
2021/06/01 01:54:24;;;;;;;11.45;5.65;;;;;;;;;;4993060;28;20066;-48
2021/06/01 01:56:54;;;;;;;9.75;5.10;;;;;;;;;;4993125;28;20034;-49
2021/06/01 01:59:22;;;;;;;11.88;6.93;;;;;;;;;;4992978;28;20114;-49
2021/06/01 02:01:51;;;;;;;9.07;4.90;;;;;;;;;;4992886;28;20062;-48
2021/06/01 02:04:28;;;;;;;8.27;4.63;;;;;;;;;;4992784;28;20026;-50
2021/06/01 02:06:55;;;;;;;5.50;4.30;;;;;;;;;;4992559;28;20043;-49
2021/06/01 02:09:22;;;;;;;5.75;3.30;;;;;;;;;;4992769;28;20398;-50
2021/06/01 02:11:50;;;;;;;6.78;4.20;;;;;;;;;;4992722;28;20041;-48
2021/06/01 02:14:17;;;;;;;5.32;4.00;;;;;;;;;;4992598;28;20138;-49
2021/06/01 02:16:43;;;;;;;6.03;4.32;;;;;;;;;;4992709;28;20154;-50
2021/06/01 02:19:15;;;;;;;6.75;4.55;;;;;;;;;;4996711;28;20030;-47
2021/06/01 02:24:32;;;;;;;6.18;3.40;;;;;;;;;;5054065;28;20474;-47
2021/06/01 02:27:15;;;;;;;7.63;4.07;;;;;;;;;;4973311;28;20030;-49
2021/06/01 02:29:59;;;;;;;5.55;4.50;;;;;;;;;;4972874;28;20037;-47
2021/06/01 02:32:27;;;;;;;6.18;3.58;;;;;;;;;;4972878;28;20039;-46
2021/06/01 02:34:54;;;;;;;6.10;3.65;;;;;;;;;;4972662;28;20035;-46
2021/06/01 02:37:20;;;;;;;5.93;4.28;;;;;;;;;;4972888;28;20070;-49
2021/06/01 02:39:50;;;;;;;7.30;3.83;;;;;;;;;;4972744;28;20042;-49
2021/06/01 02:42:16;;;;;;;5.68;4.20;;;;;;;;;;4973041;28;20038;-47
2021/06/01 02:44:42;;;;;;;6.72;3.75;;;;;;;;;;4972899;28;20039;-48
2021/06/01 02:47:08;;;;;;;6.80;4.28;;;;;;;;;;4972661;28;20066;-48
2021/06/01 02:49:35;;;;;;;4.72;3.55;;;;;;;;;;4972688;28;20023;-48
2021/06/01 02:52:01;;;;;;;7.78;3.97;;;;;;;;;;4972387;28;20137;-49
2021/06/01 02:54:28;;;;;;;5.13;3.78;;;;;;;;;;4972764;28;20109;-47
2021/06/01 02:56:54;;;;;;;6.03;3.70;;;;;;;;;;4972662;28;20042;-48
2021/06/01 02:59:21;;;;;;;6.00;4.20;;;;;;;;;;4972402;28;20026;-48
2021/06/01 03:01:50;;;;;;;6.03;3.65;;;;;;;;;;4972357;28;20517;-49
2021/06/01 03:04:16;;;;;;;5.55;4.20;;;;;;;;;;4998142;28;20038;-47
2021/06/01 03:06:43;;;;;;;8.07;4.60;;;;;;;;;;5013780;28;20050;-50
2021/06/01 03:09:10;;;;;;;7.97;4.40;;;;;;;;;;5013609;28;20022;-50
2021/06/01 03:11:37;;;;;;;6.57;3.72;;;;;;;;;;5013588;28;20026;-48
2021/06/01 03:14:03;;;;;;;8.25;4.32;;;;;;;;;;5013545;28;20105;-48
2021/06/01 03:16:29;;;;;;;6.30;4.18;;;;;;;;;;5013465;28;20030;-49
2021/06/01 03:18:55;;;;;;;8.30;4.28;;;;;;;;;;5014118;28;20053;-48
2021/06/01 03:21:23;;;;;;;7.85;4.60;;;;;;;;;;5013294;28;20042;-48
2021/06/01 03:23:50;;;;;;;7.43;4.28;;;;;;;;;;5013341;28;20072;-47
2021/06/01 03:26:16;;;;;;;9.98;4.20;;;;;;;;;;5013270;28;20033;-49
2021/06/01 03:28:42;;;;;;;5.78;4.32;;;;;;;;;;5013645;28;20022;-47
2021/06/01 03:31:09;;;;;;;7.55;4.28;;;;;;;;;;5013289;28;20022;-50
2021/06/01 03:33:35;;;;;;;6.60;4.20;;;;;;;;;;5013524;28;20018;-50
2021/06/01 03:36:01;;;;;;;9.90;6.13;;;;;;;;;;5013297;28;20030;-48
2021/06/01 03:38:28;;;;;;;33.45;13.02;;;;;;;;;;5013299;28;20482;-46
2021/06/01 03:40:54;;;;;;;20.38;9.40;;;;;;;;;;5013120;28;20038;-49
2021/06/01 03:43:21;;;;;;;11.60;6.88;;;;;;;;;;5013459;28;20053;-48
2021/06/01 03:45:47;;;;;;;17.90;8.48;;;;;;;;;;5011870;28;20037;-46
2021/06/01 03:48:13;;;;;;;10.25;5.20;;;;;;;;;;5016830;28;20040;-43
2021/06/01 03:50:39;;;;;;;8.80;5.13;;;;;;;;;;5017609;28;20029;-41
2021/06/01 03:53:05;;;;;;;7.68;4.65;;;;;;;;;;5056616;28;20119;-43
2021/06/01 03:55:31;;;;;;;18.23;9.68;;;;;;;;;;5056727;28;20035;-43
2021/06/01 03:57:58;;;;;;;21.10;8.77;;;;;;;;;;5056966;28;20029;-43
2021/06/01 04:00:25;;;;;;;26.52;14.75;;;;;;;;;;5056112;28;20029;-45
2021/06/01 04:02:51;;;;;;;11.73;6.95;;;;;;;;;;5056400;28;20028;-46
2021/06/01 04:05:18;;;;;;;14.05;8.20;;;;;;;;;;5056523;28;20079;-44
2021/06/01 04:07:45;;;;;;;8.45;6.07;;;;;;;;;;5056377;28;20021;-43
2021/06/01 04:10:12;;;;;;;19.77;13.27;;;;;;;;;;5056329;28;20381;-42
2021/06/01 04:12:38;;;;;;;41.25;23.30;;;;;;;;;;5056159;28;20032;-42
2021/06/01 04:15:06;;;;;;;16.77;10.80;;;;;;;;;;5056136;28;20063;-44
2021/06/01 04:17:33;;;;;;;14.77;8.38;;;;;;;;;;5056384;28;20027;-43
2021/06/01 04:19:59;;;;;;;11.48;6.88;;;;;;;;;;5055912;28;20024;-44
2021/06/01 04:22:26;;;;;;;28.80;15.38;;;;;;;;;;5055968;28;20045;-44
2021/06/01 04:24:52;;;;;;;10.55;6.65;;;;;;;;;;5055882;28;20385;-43
2021/06/01 04:27:18;;;;;;;14.38;7.00;;;;;;;;;;5056027;28;20057;-42
2021/06/01 04:29:44;;;;;;;13.35;6.85;;;;;;;;;;5055760;28;20117;-42
2021/06/01 04:32:10;;;;;;;15.90;10.13;;;;;;;;;;5055998;28;20029;-43
2021/06/01 04:34:37;;;;;;;14.07;7.05;;;;;;;;;;5055775;28;20495;-43
2021/06/01 04:37:03;;;;;;;11.02;5.78;;;;;;;;;;5055793;28;20017;-44
2021/06/01 04:39:29;;;;;;;10.88;6.28;;;;;;;;;;5055901;28;20048;-43
2021/06/01 04:41:55;;;;;;;15.57;9.73;;;;;;;;;;5055736;28;20037;-42
2021/06/01 04:44:21;;;;;;;16.58;10.93;;;;;;;;;;5055567;28;20021;-44
2021/06/01 04:46:48;;;;;;;19.38;9.13;;;;;;;;;;5055570;28;20028;-44
2021/06/01 04:49:14;;;;;;;11.27;7.57;;;;;;;;;;5055589;28;20057;-45
2021/06/01 04:51:40;;;;;;;11.43;6.78;;;;;;;;;;5055218;28;20048;-44
2021/06/01 04:54:06;;;;;;;10.93;6.15;;;;;;;;;;5055597;28;20079;-45
2021/06/01 04:56:32;;;;;;;12.88;6.40;;;;;;;;;;5053648;28;20039;-43
2021/06/01 04:58:58;;;;;;;8.98;6.53;;;;;;;;;;5055291;28;20025;-45
2021/06/01 05:01:25;;;;;;;9.95;5.05;;;;;;;;;;5055304;28;20033;-47
2021/06/01 05:03:52;;;;;;;7.10;5.07;;;;;;;;;;5055343;28;20527;-43
2021/06/01 05:06:18;;;;;;;9.40;5.10;;;;;;;;;;5055436;28;20039;-43
2021/06/01 05:08:44;;;;;;;8.65;5.75;;;;;;;;;;5055230;28;20099;-43
2021/06/01 05:11:11;;;;;;;7.78;5.95;;;;;;;;;;5055168;28;20036;-43
2021/06/01 05:13:37;;;;;;;9.50;4.60;;;;;;;;;;5055149;28;20057;-43
2021/06/01 05:16:03;;;;;;;9.80;4.70;;;;;;;;;;5054864;28;20021;-43
2021/06/01 05:18:29;;;;;;;10.65;4.53;;;;;;;;;;5055067;28;20017;-44
2021/06/01 05:20:56;;;;;;;8.10;4.22;;;;;;;;;;5054815;28;20033;-43
2021/06/01 05:23:22;;;;;;;8.85;4.00;;;;;;;;;;5055065;28;20021;-47
2021/06/01 05:25:48;;;;;;;6.97;4.13;;;;;;;;;;5054864;28;20025;-46
2021/06/01 05:28:14;;;;;;;10.48;4.65;;;;;;;;;;5054586;28;20469;-47
2021/06/01 05:33:15;;;;;;;9.48;4.30;;;;;;;;;;5054971;28;20029;-45
2021/06/01 05:35:51;;;;;;;6.80;3.95;;;;;;;;;;5054742;28;20368;-45
2021/06/01 05:38:17;;;;;;;9.02;3.90;;;;;;;;;;5054411;28;20036;-44
2021/06/01 05:40:43;;;;;;;8.05;3.78;;;;;;;;;;5054406;28;20028;-44
2021/06/01 05:43:09;;;;;;;5.57;4.10;;;;;;;;;;5054529;28;20029;-43
2021/06/01 05:45:38;;;;;;;5.60;3.70;;;;;;;;;;5054285;28;20602;-43
2021/06/01 05:48:05;;;;;;;12.13;4.53;;;;;;;;;;5054683;28;20059;-45
2021/06/01 05:50:32;;;;;;;7.35;4.40;;;;;;;;;;5054595;28;20079;-43
2021/06/01 05:52:59;;;;;;;13.77;3.72;;;;;;;;;;5054232;28;20095;-43
2021/06/01 05:55:25;;;;;;;9.40;3.33;;;;;;;;;;5054400;28;20100;-44
2021/06/01 05:57:54;;;;;;;9.68;3.53;;;;;;;;;;5054290;28;20017;-42
2021/06/01 06:00:20;;;;;;;11.32;3.83;;;;;;;;;;5053994;28;20479;-42
2021/06/01 06:02:46;;;;;;;9.07;3.42;;;;;;;;;;5054360;28;20021;-45
2021/06/01 06:05:13;;;;;;;6.72;3.35;;;;;;;;;;5054135;28;20024;-46
2021/06/01 06:07:40;;;;;;;4.47;3.25;;;;;;;;;;5053956;28;20040;-41
2021/06/01 06:10:06;;;;;;;6.85;3.00;;;;;;;;;;5053702;28;20037;-42
2021/06/01 06:12:34;;;;;;;8.45;3.35;;;;;;;;;;5053885;28;20377;-42
2021/06/01 06:15:00;;;;;;;4.05;2.78;;;;;;;;;;5053821;28;20366;-44
2021/06/01 06:17:32;;;;;;;4.78;3.10;;;;;;;;;;5053792;28;20028;-44
2021/06/01 06:19:59;;;;;;;6.32;2.92;;;;;;;;;;5053792;28;20029;-56
2021/06/01 06:22:27;;;;;;;8.25;3.00;;;;;;;;;;5054015;28;20133;-43
2021/06/01 06:24:53;;;;;;;10.27;3.63;;;;;;;;;;5053917;28;20033;-51
2021/06/01 06:27:19;;;;;;;6.18;3.15;;;;;;;;;;5053908;28;20104;-43
2021/06/01 06:29:45;;;;;;;4.20;2.83;;;;;;;;;;5053603;28;20481;-44
2021/06/01 06:32:12;;;;;;;6.70;3.75;;;;;;;;;;5053762;28;20100;-45
2021/06/01 06:34:38;;;;;;;10.35;3.55;;;;;;;;;;5053818;28;20075;-45
2021/06/01 06:37:05;;;;;;;9.30;3.80;;;;;;;;;;5053587;28;20469;-43
2021/06/01 06:39:32;;;;;;;11.68;4.70;;;;;;;;;;5053429;28;20068;-43
2021/06/01 06:41:58;;;;;;;13.98;3.80;;;;;;;;;;5053328;28;20041;-45
2021/06/01 06:44:25;;;;;;;8.60;3.38;;;;;;;;;;5053376;28;20121;-43
2021/06/01 06:49:32;;;;;;;10.25;3.65;;;;;;;;;;5053494;28;20031;-44
2021/06/01 06:51:58;;;;;;;4.65;3.13;;;;;;;;;;5053214;28;20083;-43
2021/06/01 06:54:24;;;;;;;6.13;3.15;;;;;;;;;;5053485;28;20031;-43
2021/06/01 06:56:50;;;;;;;8.00;3.13;;;;;;;;;;5053182;28;20040;-43
2021/06/01 06:59:17;;;;;;;7.68;4.95;;;;;;;;;;5053402;28;20045;-44
2021/06/01 07:01:44;;;;;;;15.15;3.88;;;;;;;;;;5053122;28;20111;-44
2021/06/01 07:04:10;;;;;;;12.73;4.22;;;;;;;;;;5053283;28;20507;-44
2021/06/01 07:06:36;;;;;;;10.68;5.65;;;;;;;;;;5053201;28;20033;-46
2021/06/01 07:09:02;;;;;;;9.40;4.82;;;;;;;;;;5053196;28;20074;-46
2021/06/01 07:11:28;;;;;;;13.63;4.70;;;;;;;;;;5052873;28;20442;-44
2021/06/01 07:14:13;;;;;;;4.55;3.35;;;;;;;;;;5053092;28;20516;-46
2021/06/01 07:16:39;;;;;;;11.07;3.50;;;;;;;;;;5053013;28;20025;-44
2021/06/01 07:19:06;;;;;;;9.98;3.95;;;;;;;;;;5053016;28;20108;-45
2021/06/01 07:21:32;;;;;;;11.88;3.80;;;;;;;;;;5053797;28;20036;-44
2021/06/01 07:23:58;;;;;;;7.28;4.32;;;;;;;;;;5057194;28;20072;-45
2021/06/01 07:26:25;;;;;;;6.45;4.00;;;;;;;;;;5056920;28;20031;-44
2021/06/01 07:28:51;;;;;;;15.50;7.78;;;;;;;;;;5060336;28;20020;-45
2021/06/01 07:31:17;;;;;;;52.25;31.70;;;;;;;;;;5075703;28;20505;-43
2021/06/01 07:33:44;;;;;;;51.08;25.95;;;;;;;;;;5076226;28;20027;-44
2021/06/01 07:36:10;;;;;;;35.33;18.48;;;;;;;;;;5076209;28;20113;-44
2021/06/01 07:38:37;;;;;;;30.23;14.60;;;;;;;;;;5075685;28;20028;-43
2021/06/01 07:41:03;;;;;;;14.13;8.05;;;;;;;;;;5076168;28;20036;-43
2021/06/01 07:43:30;;;;;;;21.45;8.13;;;;;;;;;;5076191;28;20081;-43
2021/06/01 07:45:57;;;;;;;30.55;18.85;;;;;;;;;;5075972;28;20017;-43
2021/06/01 07:48:25;;;;;;;38.83;21.40;;;;;;;;;;5076267;28;20040;-42
2021/06/01 07:50:52;;;;;;;68.82;41.45;;;;;;;;;;5075660;28;20067;-42
2021/06/01 07:53:18;;;;;;;41.17;23.35;;;;;;;;;;5076049;28;20028;-43
2021/06/01 07:55:44;;;;;;;24.02;11.52;;;;;;;;;;5076372;28;20023;-45
2021/06/01 07:58:10;;;;;;;20.25;10.48;;;;;;;;;;5076465;28;20021;-44
2021/06/01 08:00:37;;;;;;;10.13;4.93;;;;;;;;;;5076169;28;20020;-43
2021/06/01 08:03:03;;;;;;;27.55;11.00;;;;;;;;;;5076247;28;20035;-46
2021/06/01 08:05:29;;;;;;;30.95;13.70;;;;;;;;;;5076367;28;20050;-44
2021/06/01 08:07:58;;;;;;;30.20;11.27;;;;;;;;;;5076516;28;20035;-44
2021/06/01 08:10:25;;;;;;;26.48;9.20;;;;;;;;;;5076272;28;20021;-44
2021/06/01 08:12:53;;;;;;;20.63;6.43;;;;;;;;;;5076482;28;20033;-44
2021/06/01 08:15:22;;;;;;;22.48;6.90;;;;;;;;;;5076213;28;20025;-44
2021/06/01 08:17:52;;;;;;;20.45;7.15;;;;;;;;;;5076140;28;20051;-44
2021/06/01 08:23:14;;;;;;;10.45;4.88;;;;;;;;;;5014459;28;20061;-44
2021/06/01 08:25:40;;;;;;;9.57;4.60;;;;;;;;;;5014177;28;20470;-44
2021/06/01 08:28:06;;;;;;;15.43;4.70;;;;;;;;;;5014232;28;20070;-44
2021/06/01 08:30:34;;;;;;;15.20;4.80;;;;;;;;;;5014046;28;20030;-44
2021/06/01 08:33:00;;;;;;;7.82;3.60;;;;;;;;;;5013924;28;20513;-44
2021/06/01 08:35:26;;;;;;;8.82;4.38;;;;;;;;;;5014375;28;20112;-44
2021/06/01 08:37:52;;;;;;;14.00;4.72;;;;;;;;;;5013977;28;20442;-45
2021/06/01 08:40:18;;;;;;;7.78;3.63;;;;;;;;;;5013932;28;20030;-44
2021/06/01 08:42:45;;;;;;;6.95;3.67;;;;;;;;;;5013933;28;20038;-45
2021/06/01 08:45:11;;;;;;;7.20;3.58;;;;;;;;;;5014034;28;20028;-45
2021/06/01 08:47:39;;;;;;;4.95;3.72;;;;;;;;;;5014009;28;20044;-47
2021/06/01 08:50:06;;;;;;;6.78;3.90;;;;;;;;;;5013843;28;20026;-45
2021/06/01 08:52:33;;;;;;;11.00;3.80;;;;;;;;;;5013765;28;20124;-44
2021/06/01 08:54:59;;;;;;;6.30;4.30;;;;;;;;;;5013731;28;20026;-44
2021/06/01 08:57:26;;;;;;;6.72;3.55;;;;;;;;;;5013734;28;20060;-44
2021/06/01 08:59:52;;;;;;;6.97;3.55;;;;;;;;;;5050993;28;20037;-45
2021/06/01 09:02:22;;;;;;;10.85;3.35;;;;;;;;;;5075413;28;20428;-44
2021/06/01 09:04:51;;;;;;;4.25;3.35;;;;;;;;;;5075375;28;20020;-46
2021/06/01 09:07:27;;;;;;;6.40;3.10;;;;;;;;;;5075175;28;20055;-46
2021/06/01 09:21:35;;;;;;;8.10;3.20;;;;;;;;;;4993672;28;20081;-45
2021/06/01 09:24:03;;;;;;;7.85;3.30;;;;;;;;;;4993548;28;20109;-45
2021/06/01 09:26:48;;;;;;;8.20;2.90;;;;;;;;;;4993560;28;20108;-44
2021/06/01 09:29:14;;;;;;;3.20;2.90;;;;;;;;;;4993489;28;20129;-44
2021/06/01 09:31:40;;;;;;;10.52;3.20;;;;;;;;;;4993319;28;20034;-45
2021/06/01 09:34:07;;;;;;;11.85;3.85;;;;;;;;;;4993620;28;20041;-44
2021/06/01 09:36:33;;;;;;;14.45;6.55;;;;;;;;;;4993430;28;20524;-44
2021/06/01 09:38:59;;;;;;;9.75;3.63;;;;;;;;;;4993271;28;20034;-45
2021/06/01 09:41:27;;;;;;;5.63;3.30;;;;;;;;;;4993266;28;20042;-44
2021/06/01 09:43:55;;;;;;;8.88;3.63;;;;;;;;;;4992520;28;20553;-44
2021/06/01 09:46:22;;;;;;;6.43;3.00;;;;;;;;;;4993173;28;20038;-44
2021/06/01 09:48:49;;;;;;;7.22;3.50;;;;;;;;;;4993024;28;20026;-44
2021/06/01 09:51:25;;;;;;;7.47;3.55;;;;;;;;;;5074120;28;20052;-43
2021/06/01 09:53:55;;;;;;;9.05;3.63;;;;;;;;;;5074214;28;20028;-43
2021/06/01 09:56:21;;;;;;;4.53;3.30;;;;;;;;;;5074303;28;20388;-44
2021/06/01 09:58:47;;;;;;;7.47;3.50;;;;;;;;;;5074360;28;20028;-44
2021/06/01 10:01:14;;;;;;;5.15;3.00;;;;;;;;;;5073960;28;20032;-44
2021/06/01 10:03:42;;;;;;;5.72;3.20;;;;;;;;;;5074192;28;20028;-43
2021/06/01 10:06:08;;;;;;;4.18;3.20;;;;;;;;;;5074212;28;20106;-44
2021/06/01 10:08:40;;;;;;;8.48;3.92;;;;;;;;;;5074026;28;20021;-43
2021/06/01 10:11:10;;;;;;;9.85;3.33;;;;;;;;;;5074299;28;20027;-43
2021/06/01 10:13:38;;;;;;;6.65;3.03;;;;;;;;;;5073902;28;20104;-43
2021/06/01 10:16:06;;;;;;;9.43;2.92;;;;;;;;;;5073736;28;20078;-43
2021/06/01 10:18:32;;;;;;;5.22;3.20;;;;;;;;;;5073697;28;20016;-45
2021/06/01 10:20:59;;;;;;;4.40;3.00;;;;;;;;;;5073869;28;20120;-45
2021/06/01 10:23:34;;;;;;;6.30;2.88;;;;;;;;;;5074130;28;20025;-45
2021/06/01 10:26:00;;;;;;;9.27;3.47;;;;;;;;;;5073713;28;20066;-45
2021/06/01 10:28:38;;;;;;;4.22;2.85;;;;;;;;;;5073979;28;20030;-45
2021/06/01 10:31:06;;;;;;;13.43;8.10;;;;;;;;;;5073528;28;20487;-45
2021/06/01 10:33:42;;;;;;;8.02;3.47;;;;;;;;;;5073629;28;20107;-45
2021/06/01 10:50:23;;;;;;;8.43;3.50;;;;;;;;;;5011871;28;20044;-45
2021/06/01 10:53:07;;;;;;;7.07;3.42;;;;;;;;;;5011528;28;20053;-45
2021/06/01 10:55:55;;;;;;;10.57;3.53;;;;;;;;;;5011544;28;20022;-45
2021/06/01 10:58:33;;;;;;;9.00;2.92;;;;;;;;;;5011629;28;20445;-45
2021/06/01 11:04:05;;;;;;;3.92;2.80;;;;;;;;;;5011573;28;20099;-45
2021/06/01 11:06:54;;;;;;;17.08;3.30;;;;;;;;;;5011666;28;20029;-45
2021/06/01 11:09:34;;;;;;;9.93;3.13;;;;;;;;;;5002616;28;20540;-45
2021/06/01 11:12:00;;;;;;;;;;;;;;;;;;5012028;28;20514;-42
2021/06/01 11:14:30;;;;;;;6.60;3.30;;;;;;;;;;5011490;28;19905;-45
2021/06/01 11:16:57;;;;;;;11.85;3.92;;;;;;;;;;5011432;28;20038;-45
2021/06/01 11:19:28;;;;;;;6.03;3.38;;;;;;;;;;5011541;28;20177;-45
2021/06/01 11:22:01;;;;;;;;;;;;;;;;;;5011922;28;20046;-42
2021/06/01 11:35:48;;;;;;;6.68;2.67;;;;;;;;;;5011508;28;20073;-45
2021/06/01 11:38:19;;;;;;;15.75;3.30;;;;;;;;;;5011333;28;20053;-45
2021/06/01 11:41:07;;;;;;;5.80;2.38;;;;;;;;;;5011225;28;20045;-45
2021/06/01 11:43:33;;;;;;;8.55;2.70;;;;;;;;;;5011401;28;20037;-44
2021/06/01 11:46:10;;;;;;;6.35;2.15;;;;;;;;;;5011081;28;20037;-44
2021/06/01 11:51:47;;;;;;;5.82;2.25;;;;;;;;;;5010997;28;20089;-44
2021/06/01 11:54:16;;;;;;;3.15;2.25;;;;;;;;;;5010974;28;20037;-44
2021/06/01 11:57:01;;;;;;;5.60;1.80;;;;;;;;;;5011192;28;20037;-44
2021/06/01 12:18:47;;;;;;;2.05;1.73;;;;;;;;;;5076517;28;20101;-44
2021/06/01 12:21:17;;;;;;;2.70;1.20;;;;;;;;;;5076155;28;20036;-45
2021/06/01 12:23:57;;;;;;;2.88;1.67;;;;;;;;;;5076088;28;20028;-46
2021/06/01 12:32:06;;;;;;;5.20;2.22;;;;;;;;;;5014572;28;20033;-46
2021/06/01 13:21:47;;;;;;;33.35;21.05;;;;;;;;;;4944985;28;20110;-45
2021/06/01 13:30:25;;;;;;;57.97;36.88;;;;;;;;;;4973071;28;20476;-45
2021/06/01 13:38:37;;;;;;;150.48;101.18;;;;;;;;;;4974298;28;20044;-45
2021/06/01 13:46:47;;;;;;;76.45;45.78;;;;;;;;;;4973657;28;20030;-45
2021/06/01 13:49:22;;;;;;;109.40;59.00;;;;;;;;;;4973763;28;20078;-45
2021/06/01 14:00:00;;;;;;;42.33;22.35;;;;;;;;;;5012600;28;20164;-45
2021/06/01 15:32:11;;;;;;;9.85;5.07;;;;;;;;;;4961668;28;20038;-43
2021/06/01 17:04:52;;;;;;;21.48;10.20;;;;;;;;;;5051485;28;20040;-44
2021/06/01 17:13:03;;;;;;;14.57;5.88;;;;;;;;;;5050504;28;20439;-44
2021/06/01 17:15:29;;;;;;;11.30;5.60;;;;;;;;;;5050056;28;20498;-42
2021/06/01 17:18:04;;;;;;;6.32;3.75;;;;;;;;;;5048257;28;20059;-43
2021/06/01 17:36:53;;;;;;;13.27;4.63;;;;;;;;;;5048163;28;20159;-43
2021/06/01 17:39:20;;;;;;;6.90;3.20;;;;;;;;;;5050560;28;20088;-44
2021/06/01 17:41:48;;;;;;;9.05;3.28;;;;;;;;;;5049527;28;20035;-44
2021/06/01 17:44:16;;;;;;;9.73;3.22;;;;;;;;;;5049134;28;20059;-44
2021/06/01 17:46:44;;;;;;;19.50;8.68;;;;;;;;;;5049282;28;20079;-45
2021/06/01 17:49:13;;;;;;;13.57;6.43;;;;;;;;;;5049724;28;20021;-43
2021/06/01 17:51:42;;;;;;;7.25;4.22;;;;;;;;;;5048788;28;20045;-44
2021/06/01 17:54:08;;;;;;;12.35;7.45;;;;;;;;;;5048465;28;20357;-43
2021/06/01 17:56:37;;;;;;;17.65;9.38;;;;;;;;;;5049628;28;20040;-43
2021/06/01 17:59:04;;;;;;;18.73;8.38;;;;;;;;;;5048680;28;20048;-44
2021/06/01 18:01:31;;;;;;;17.98;8.23;;;;;;;;;;5051904;28;20037;-43
2021/06/01 18:04:00;;;;;;;15.55;6.25;;;;;;;;;;5070580;28;20024;-43
2021/06/01 18:06:30;;;;;;;25.77;13.02;;;;;;;;;;5072446;28;20044;-45
2021/06/01 19:25:27;;;;;;;16.77;7.55;;;;;;;;;;5047824;28;20023;-43
2021/06/01 19:52:22;;;;;;;28.90;12.23;;;;;;;;;;5045629;28;20064;-45
2021/06/01 19:54:51;;;;;;;37.35;18.05;;;;;;;;;;5045689;28;20025;-45
2021/06/01 19:57:21;;;;;;;30.38;15.48;;;;;;;;;;5046120;28;20052;-46
2021/06/01 19:59:50;;;;;;;22.50;9.90;;;;;;;;;;5047327;28;20029;-48
2021/06/01 20:02:23;;;;;;;23.85;10.68;;;;;;;;;;5045451;28;20039;-46
2021/06/01 20:04:53;;;;;;;10.32;5.15;;;;;;;;;;5045384;28;20064;-46
2021/06/01 20:07:19;;;;;;;9.50;4.63;;;;;;;;;;5047969;28;20059;-46
2021/06/01 20:09:46;;;;;;;18.02;5.38;;;;;;;;;;5045310;28;20374;-44
2021/06/01 20:12:12;;;;;;;12.40;5.72;;;;;;;;;;5045576;28;20098;-45
2021/06/01 20:14:39;;;;;;;9.90;4.65;;;;;;;;;;5045747;28;20609;-45
2021/06/01 20:17:08;;;;;;;15.68;5.20;;;;;;;;;;5045403;28;20025;-44
2021/06/01 20:19:36;;;;;;;12.55;4.78;;;;;;;;;;5045792;28;20640;-44
2021/06/01 20:22:03;;;;;;;23.05;4.70;;;;;;;;;;5047091;28;20044;-44
2021/06/01 20:24:32;;;;;;;11.68;4.47;;;;;;;;;;5045216;28;20358;-46
2021/06/01 20:27:00;;;;;;;9.90;3.67;;;;;;;;;;5045154;28;20029;-45
2021/06/01 20:29:31;;;;;;;8.20;4.80;;;;;;;;;;5027135;28;20037;-43
2021/06/01 20:33:06;;;;;;;15.20;4.60;;;;;;;;;;5044792;28;20032;-46
2021/06/01 20:34:45;;;;;;;38.40;24.10;;;;;;;;;;5045110;28;20029;-46
2021/06/01 20:37:11;;;;;;;17.42;10.75;;;;;;;;;;5045561;28;20044;-44
2021/06/01 20:39:44;;;;;;;15.38;8.30;;;;;;;;;;5045100;28;20436;-44
2021/06/01 20:42:11;;;;;;;10.07;5.97;;;;;;;;;;5044855;28;20045;-45
2021/06/01 20:44:38;;;;;;;21.40;9.07;;;;;;;;;;5045222;28;20475;-44
2021/06/01 20:47:08;;;;;;;16.70;6.03;;;;;;;;;;5044851;28;20021;-45
2021/06/01 20:49:35;;;;;;;21.90;8.18;;;;;;;;;;5046108;28;20024;-44
2021/06/01 20:52:02;;;;;;;23.02;11.60;;;;;;;;;;5045912;28;20044;-45
2021/06/01 20:54:28;;;;;;;20.83;9.80;;;;;;;;;;5044830;28;20079;-48
2021/06/01 20:56:55;;;;;;;16.52;7.72;;;;;;;;;;5045051;28;20032;-44
2021/06/01 20:59:23;;;;;;;20.20;8.60;;;;;;;;;;5047377;28;20035;-44
2021/06/01 21:01:52;;;;;;;42.10;22.75;;;;;;;;;;5048280;28;20040;-45
2021/06/01 21:04:21;;;;;;;27.00;15.55;;;;;;;;;;5047765;28;20062;-44
2021/06/01 21:06:48;;;;;;;15.65;9.07;;;;;;;;;;5045619;28;20526;-46
2021/06/01 21:09:14;;;;;;;17.13;7.78;;;;;;;;;;5046301;28;20481;-45
2021/06/01 21:11:41;;;;;;;10.73;5.00;;;;;;;;;;5044370;28;20029;-43
2021/06/01 21:14:08;;;;;;;10.23;6.20;;;;;;;;;;5044487;28;20098;-43
2021/06/01 21:16:35;;;;;;;25.38;5.65;;;;;;;;;;5045825;28;20854;-47
2021/06/01 21:19:02;;;;;;;20.60;6.82;;;;;;;;;;5044357;28;20078;-45
2021/06/01 21:21:28;;;;;;;14.93;6.63;;;;;;;;;;5045231;28;20118;-45
2021/06/01 21:23:55;;;;;;;10.48;6.40;;;;;;;;;;5045239;28;20025;-46
2021/06/01 21:26:21;;;;;;;13.27;6.25;;;;;;;;;;5045128;28;20068;-45
2021/06/01 21:28:47;;;;;;;10.70;4.93;;;;;;;;;;5044410;28;20029;-45
2021/06/01 21:31:15;;;;;;;17.73;8.02;;;;;;;;;;5044541;28;20447;-45
2021/06/01 21:33:50;;;;;;;24.95;13.25;;;;;;;;;;5045400;28;20028;-45
2021/06/01 21:36:18;;;;;;;25.25;11.55;;;;;;;;;;5044205;28;20025;-44
2021/06/01 21:38:45;;;;;;;28.20;17.40;;;;;;;;;;5044358;28;20343;-44
2021/06/01 21:41:14;;;;;;;27.05;13.00;;;;;;;;;;5042814;28;20031;-44
2021/06/01 21:43:41;;;;;;;14.75;5.63;;;;;;;;;;5043670;28;20037;-43
2021/06/01 21:46:08;;;;;;;9.88;4.75;;;;;;;;;;5044019;28;20053;-45
2021/06/01 21:48:42;;;;;;;9.55;5.50;;;;;;;;;;5043862;28;20031;-44
2021/06/01 21:51:08;;;;;;;16.70;9.70;;;;;;;;;;5043488;28;20109;-45
2021/06/01 21:53:36;;;;;;;28.73;15.02;;;;;;;;;;5043713;28;20770;-44
2021/06/01 21:56:02;;;;;;;25.08;13.80;;;;;;;;;;5043350;28;20025;-44
2021/06/01 21:58:30;;;;;;;17.75;11.38;;;;;;;;;;5043713;28;20028;-45
2021/06/01 22:00:58;;;;;;;27.92;14.00;;;;;;;;;;5043362;28;20351;-44
2021/06/01 22:03:24;;;;;;;17.85;9.70;;;;;;;;;;5044320;28;20041;-45
2021/06/01 22:05:51;;;;;;;24.70;12.85;;;;;;;;;;5045033;28;20106;-44
2021/06/01 22:08:18;;;;;;;29.83;17.67;;;;;;;;;;5043227;28;20417;-48
2021/06/01 22:10:45;;;;;;;38.90;22.92;;;;;;;;;;5043405;28;20453;-44
2021/06/01 22:13:14;;;;;;;28.27;16.27;;;;;;;;;;5043114;28;20025;-44
2021/06/01 22:15:40;;;;;;;40.97;23.35;;;;;;;;;;5044065;28;20042;-44
2021/06/01 22:18:23;;;;;;;24.73;15.18;;;;;;;;;;5043220;28;21247;-43
2021/06/01 22:20:49;;;;;;;24.70;12.98;;;;;;;;;;5043231;28;20020;-45
2021/06/01 22:23:16;;;;;;;18.05;10.45;;;;;;;;;;5043850;28;20044;-43